sensor_id;sensor_type;location;lat;lon;timestamp;temperature;humidity
1015;DHT22;8170;48.118;11.628;2022-07-04T00:00:39;22.00;99.90
1015;DHT22;8170;48.118;11.628;2022-07-04T00:01:42;22.00;99.90
1015;DHT22;8170;48.118;11.628;2022-07-04T00:02:45;22.00;99.90
1015;DHT22;8170;48.118;11.628;2022-07-04T00:03:49;22.00;99.90
1015;DHT22;8170;48.118;11.628;2022-07-04T00:04:51;22.10;99.90
1015;DHT22;8170;48.118;11.628;2022-07-04T00:05:55;22.10;99.90
1015;DHT22;8170;48.118;11.628;2022-07-04T00:06:57;22.10;99.90
1015;DHT22;8170;48.118;11.628;2022-07-04T00:08:00;22.20;99.90
1015;DHT22;8170;48.118;11.628;2022-07-04T00:09:02;22.20;99.90
1015;DHT22;8170;48.118;11.628;2022-07-04T00:10:06;22.30;99.90
1015;DHT22;8170;48.118;11.628;2022-07-04T00:11:08;22.40;99.90
1015;DHT22;8170;48.118;11.628;2022-07-04T00:12:11;22.30;99.90
1015;DHT22;8170;48.118;11.628;2022-07-04T00:13:14;22.30;99.90
1015;DHT22;8170;48.118;11.628;2022-07-04T00:14:18;22.30;99.90
1015;DHT22;8170;48.118;11.628;2022-07-04T00:15:20;22.40;99.90
1015;DHT22;8170;48.118;11.628;2022-07-04T00:16:24;22.40;99.90
1015;DHT22;8170;48.118;11.628;2022-07-04T00:17:26;22.40;99.90
1015;DHT22;8170;48.118;11.628;2022-07-04T00:18:29;22.40;99.90
1015;DHT22;8170;48.118;11.628;2022-07-04T00:19:31;22.40;99.90
1015;DHT22;8170;48.118;11.628;2022-07-04T00:20:34;22.40;99.90
1015;DHT22;8170;48.118;11.628;2022-07-04T00:21:36;22.30;99.90
1015;DHT22;8170;48.118;11.628;2022-07-04T00:22:39;22.40;99.90
1015;DHT22;8170;48.118;11.628;2022-07-04T00:23:41;22.40;99.90
1015;DHT22;8170;48.118;11.628;2022-07-04T00:24:44;22.40;99.90
1015;DHT22;8170;48.118;11.628;2022-07-04T00:25:47;22.40;99.90
1015;DHT22;8170;48.118;11.628;2022-07-04T00:26:50;22.40;99.90
1015;DHT22;8170;48.118;11.628;2022-07-04T00:27:52;22.40;99.90
1015;DHT22;8170;48.118;11.628;2022-07-04T00:28:55;22.40;99.90
1015;DHT22;8170;48.118;11.628;2022-07-04T00:29:59;22.30;99.90
1015;DHT22;8170;48.118;11.628;2022-07-04T00:31:02;22.30;99.90
1015;DHT22;8170;48.118;11.628;2022-07-04T00:32:05;22.30;99.90
1015;DHT22;8170;48.118;11.628;2022-07-04T00:33:11;22.30;99.90
1015;DHT22;8170;48.118;11.628;2022-07-04T00:34:14;22.30;99.90
1015;DHT22;8170;48.118;11.628;2022-07-04T00:35:17;22.30;99.90
1015;DHT22;8170;48.118;11.628;2022-07-04T00:36:19;22.30;99.90
1015;DHT22;8170;48.118;11.628;2022-07-04T00:37:22;22.30;99.90
1015;DHT22;8170;48.118;11.628;2022-07-04T00:38:24;22.30;99.90
1015;DHT22;8170;48.118;11.628;2022-07-04T00:39:27;22.30;99.90
1015;DHT22;8170;48.118;11.628;2022-07-04T00:40:30;22.20;99.90
1015;DHT22;8170;48.118;11.628;2022-07-04T00:41:33;22.30;99.90
1015;DHT22;8170;48.118;11.628;2022-07-04T00:42:35;22.30;99.90
1015;DHT22;8170;48.118;11.628;2022-07-04T00:43:38;22.20;99.90
1015;DHT22;8170;48.118;11.628;2022-07-04T00:45:01;22.10;99.90
1015;DHT22;8170;48.118;11.628;2022-07-04T00:46:05;22.00;99.90
1015;DHT22;8170;48.118;11.628;2022-07-04T00:47:07;22.00;99.90
1015;DHT22;8170;48.118;11.628;2022-07-04T00:48:11;22.00;99.90
1015;DHT22;8170;48.118;11.628;2022-07-04T00:49:17;22.00;99.90
1015;DHT22;8170;48.118;11.628;2022-07-04T00:50:20;22.00;99.90
1015;DHT22;8170;48.118;11.628;2022-07-04T00:51:23;22.00;99.90
1015;DHT22;8170;48.118;11.628;2022-07-04T00:52:27;21.90;99.90
1015;DHT22;8170;48.118;11.628;2022-07-04T00:53:30;21.90;99.90
1015;DHT22;8170;48.118;11.628;2022-07-04T00:54:33;21.90;99.90
1015;DHT22;8170;48.118;11.628;2022-07-04T00:55:35;21.90;99.90
1015;DHT22;8170;48.118;11.628;2022-07-04T00:56:40;22.00;99.90
1015;DHT22;8170;48.118;11.628;2022-07-04T00:57:42;22.00;99.90
1015;DHT22;8170;48.118;11.628;2022-07-04T00:58:45;22.00;99.90
1015;DHT22;8170;48.118;11.628;2022-07-04T00:59:47;22.00;99.90
1015;DHT22;8170;48.118;11.628;2022-07-04T01:00:52;22.00;99.90
1015;DHT22;8170;48.118;11.628;2022-07-04T01:01:54;22.00;99.90
1015;DHT22;8170;48.118;11.628;2022-07-04T01:02:58;21.90;99.90
1015;DHT22;8170;48.118;11.628;2022-07-04T01:04:01;21.90;99.90
1015;DHT22;8170;48.118;11.628;2022-07-04T01:05:05;21.90;99.90
1015;DHT22;8170;48.118;11.628;2022-07-04T01:06:09;21.80;99.90
1015;DHT22;8170;48.118;11.628;2022-07-04T01:07:12;21.80;99.90
1015;DHT22;8170;48.118;11.628;2022-07-04T01:08:15;21.70;99.90
1015;DHT22;8170;48.118;11.628;2022-07-04T01:09:18;21.70;99.90
1015;DHT22;8170;48.118;11.628;2022-07-04T01:10:20;21.60;99.90
1015;DHT22;8170;48.118;11.628;2022-07-04T01:11:23;21.50;99.90
1015;DHT22;8170;48.118;11.628;2022-07-04T01:12:26;21.40;99.90
1015;DHT22;8170;48.118;11.628;2022-07-04T01:13:29;21.40;99.90
1015;DHT22;8170;48.118;11.628;2022-07-04T01:14:31;21.40;99.90
1015;DHT22;8170;48.118;11.628;2022-07-04T01:15:34;21.40;99.90
1015;DHT22;8170;48.118;11.628;2022-07-04T01:16:38;21.30;99.90
1015;DHT22;8170;48.118;11.628;2022-07-04T01:17:41;21.30;99.90
1015;DHT22;8170;48.118;11.628;2022-07-04T01:18:43;21.30;99.90
1015;DHT22;8170;48.118;11.628;2022-07-04T01:19:46;21.50;99.90
1015;DHT22;8170;48.118;11.628;2022-07-04T01:20:50;21.50;99.90
1015;DHT22;8170;48.118;11.628;2022-07-04T01:21:53;21.50;99.90
1015;DHT22;8170;48.118;11.628;2022-07-04T01:22:55;21.50;99.90
1015;DHT22;8170;48.118;11.628;2022-07-04T01:23:58;21.50;99.90
1015;DHT22;8170;48.118;11.628;2022-07-04T01:25:00;21.50;99.90
1015;DHT22;8170;48.118;11.628;2022-07-04T01:26:05;21.50;99.90
1015;DHT22;8170;48.118;11.628;2022-07-04T01:27:07;21.60;99.90
1015;DHT22;8170;48.118;11.628;2022-07-04T01:28:10;21.60;99.90
1015;DHT22;8170;48.118;11.628;2022-07-04T01:29:12;21.70;99.90
1015;DHT22;8170;48.118;11.628;2022-07-04T01:30:16;21.70;99.90
1015;DHT22;8170;48.118;11.628;2022-07-04T01:31:18;21.70;99.90
1015;DHT22;8170;48.118;11.628;2022-07-04T01:32:21;21.70;99.90
1015;DHT22;8170;48.118;11.628;2022-07-04T01:33:23;21.80;99.90
1015;DHT22;8170;48.118;11.628;2022-07-04T01:34:27;21.80;99.90
1015;DHT22;8170;48.118;11.628;2022-07-04T01:35:29;21.90;99.90
1015;DHT22;8170;48.118;11.628;2022-07-04T01:36:33;21.90;99.90
1015;DHT22;8170;48.118;11.628;2022-07-04T01:37:35;21.90;99.90
1015;DHT22;8170;48.118;11.628;2022-07-04T01:38:38;21.90;99.90
1015;DHT22;8170;48.118;11.628;2022-07-04T01:39:41;21.90;99.90
1015;DHT22;8170;48.118;11.628;2022-07-04T01:40:44;21.80;99.90
1015;DHT22;8170;48.118;11.628;2022-07-04T01:41:46;21.90;99.90
1015;DHT22;8170;48.118;11.628;2022-07-04T01:42:49;21.90;99.90
1015;DHT22;8170;48.118;11.628;2022-07-04T01:43:51;21.90;99.90
1015;DHT22;8170;48.118;11.628;2022-07-04T01:44:55;21.90;99.90
1015;DHT22;8170;48.118;11.628;2022-07-04T01:45:57;21.90;99.90
1015;DHT22;8170;48.118;11.628;2022-07-04T01:47:00;21.90;99.90
1015;DHT22;8170;48.118;11.628;2022-07-04T01:48:03;21.90;99.90
1015;DHT22;8170;48.118;11.628;2022-07-04T01:49:06;21.90;99.90
1015;DHT22;8170;48.118;11.628;2022-07-04T01:50:10;21.90;99.90
1015;DHT22;8170;48.118;11.628;2022-07-04T01:51:14;22.00;99.90
1015;DHT22;8170;48.118;11.628;2022-07-04T01:52:17;22.00;99.90
1015;DHT22;8170;48.118;11.628;2022-07-04T01:53:21;21.90;99.90
1015;DHT22;8170;48.118;11.628;2022-07-04T01:54:23;21.90;99.90
1015;DHT22;8170;48.118;11.628;2022-07-04T01:55:28;21.90;99.90
1015;DHT22;8170;48.118;11.628;2022-07-04T01:56:30;21.90;99.90
1015;DHT22;8170;48.118;11.628;2022-07-04T01:57:33;21.80;99.90
1015;DHT22;8170;48.118;11.628;2022-07-04T01:58:36;21.90;99.90
1015;DHT22;8170;48.118;11.628;2022-07-04T01:59:39;21.80;99.90
1015;DHT22;8170;48.118;11.628;2022-07-04T02:01:01;21.80;99.90
1015;DHT22;8170;48.118;11.628;2022-07-04T02:02:21;21.60;99.90
1015;DHT22;8170;48.118;11.628;2022-07-04T02:03:24;21.50;99.90
1015;DHT22;8170;48.118;11.628;2022-07-04T02:04:27;21.40;99.90
1015;DHT22;8170;48.118;11.628;2022-07-04T02:05:30;21.30;99.90
1015;DHT22;8170;48.118;11.628;2022-07-04T02:06:32;21.30;99.90
1015;DHT22;8170;48.118;11.628;2022-07-04T02:07:37;21.30;99.90
1015;DHT22;8170;48.118;11.628;2022-07-04T02:08:39;21.40;99.90
1015;DHT22;8170;48.118;11.628;2022-07-04T02:10:02;21.40;99.90
1015;DHT22;8170;48.118;11.628;2022-07-04T02:11:05;21.40;99.90
1015;DHT22;8170;48.118;11.628;2022-07-04T02:12:08;21.40;99.90
1015;DHT22;8170;48.118;11.628;2022-07-04T02:13:28;21.40;99.90
1015;DHT22;8170;48.118;11.628;2022-07-04T02:14:33;21.40;99.90
1015;DHT22;8170;48.118;11.628;2022-07-04T02:15:36;21.50;99.90
1015;DHT22;8170;48.118;11.628;2022-07-04T02:16:39;21.50;99.90
1015;DHT22;8170;48.118;11.628;2022-07-04T02:17:41;21.50;99.90
1015;DHT22;8170;48.118;11.628;2022-07-04T02:18:44;21.60;99.90
1015;DHT22;8170;48.118;11.628;2022-07-04T02:19:46;21.50;99.90
1015;DHT22;8170;48.118;11.628;2022-07-04T02:20:49;21.50;99.90
1015;DHT22;8170;48.118;11.628;2022-07-04T02:21:51;21.50;99.90
1015;DHT22;8170;48.118;11.628;2022-07-04T02:22:56;21.60;99.90
1015;DHT22;8170;48.118;11.628;2022-07-04T02:23:58;21.50;99.90
1015;DHT22;8170;48.118;11.628;2022-07-04T02:25:01;21.50;99.90
1015;DHT22;8170;48.118;11.628;2022-07-04T02:26:03;21.50;99.90
1015;DHT22;8170;48.118;11.628;2022-07-04T02:27:06;21.50;99.90
1015;DHT22;8170;48.118;11.628;2022-07-04T02:28:08;21.40;99.90
1015;DHT22;8170;48.118;11.628;2022-07-04T02:29:11;21.50;99.90
1015;DHT22;8170;48.118;11.628;2022-07-04T02:30:14;21.40;99.90
1015;DHT22;8170;48.118;11.628;2022-07-04T02:31:17;21.40;99.90
1015;DHT22;8170;48.118;11.628;2022-07-04T02:32:19;21.50;99.90
1015;DHT22;8170;48.118;11.628;2022-07-04T02:33:22;21.50;99.90
1015;DHT22;8170;48.118;11.628;2022-07-04T02:34:26;21.50;99.90
1015;DHT22;8170;48.118;11.628;2022-07-04T02:35:28;21.40;99.90
1015;DHT22;8170;48.118;11.628;2022-07-04T02:36:31;21.40;99.90
1015;DHT22;8170;48.118;11.628;2022-07-04T02:37:33;21.30;99.90
1015;DHT22;8170;48.118;11.628;2022-07-04T02:38:38;21.30;99.90
1015;DHT22;8170;48.118;11.628;2022-07-04T02:39:40;21.20;99.90
1015;DHT22;8170;48.118;11.628;2022-07-04T02:40:43;21.20;99.90
1015;DHT22;8170;48.118;11.628;2022-07-04T02:41:45;21.10;99.90
1015;DHT22;8170;48.118;11.628;2022-07-04T02:42:54;21.10;99.90
1015;DHT22;8170;48.118;11.628;2022-07-04T02:43:57;21.10;99.90
1015;DHT22;8170;48.118;11.628;2022-07-04T02:45:01;21.10;99.90
1015;DHT22;8170;48.118;11.628;2022-07-04T02:46:03;21.10;99.90
1015;DHT22;8170;48.118;11.628;2022-07-04T02:47:06;21.10;99.90
1015;DHT22;8170;48.118;11.628;2022-07-04T02:48:08;21.10;99.90
1015;DHT22;8170;48.118;11.628;2022-07-04T02:49:12;21.10;99.90
1015;DHT22;8170;48.118;11.628;2022-07-04T02:50:14;21.10;99.90
1015;DHT22;8170;48.118;11.628;2022-07-04T02:51:17;21.10;99.90
1015;DHT22;8170;48.118;11.628;2022-07-04T02:52:19;21.10;99.90
1015;DHT22;8170;48.118;11.628;2022-07-04T02:53:22;21.10;99.90
1015;DHT22;8170;48.118;11.628;2022-07-04T02:54:26;21.10;99.90
1015;DHT22;8170;48.118;11.628;2022-07-04T02:55:30;21.10;99.90
1015;DHT22;8170;48.118;11.628;2022-07-04T02:56:32;21.10;99.90
1015;DHT22;8170;48.118;11.628;2022-07-04T02:57:35;21.10;99.90
1015;DHT22;8170;48.118;11.628;2022-07-04T02:58:39;21.00;99.90
1015;DHT22;8170;48.118;11.628;2022-07-04T02:59:42;20.90;99.90
1015;DHT22;8170;48.118;11.628;2022-07-04T03:00:45;20.90;99.90
1015;DHT22;8170;48.118;11.628;2022-07-04T03:01:48;20.80;99.90
1015;DHT22;8170;48.118;11.628;2022-07-04T03:02:50;20.80;99.90
1015;DHT22;8170;48.118;11.628;2022-07-04T03:03:53;20.80;99.90
1015;DHT22;8170;48.118;11.628;2022-07-04T03:04:56;20.80;99.90
1015;DHT22;8170;48.118;11.628;2022-07-04T03:05:59;20.70;99.90
1015;DHT22;8170;48.118;11.628;2022-07-04T03:07:06;20.60;99.90
1015;DHT22;8170;48.118;11.628;2022-07-04T03:08:10;20.60;99.90
1015;DHT22;8170;48.118;11.628;2022-07-04T03:09:12;20.60;99.90
1015;DHT22;8170;48.118;11.628;2022-07-04T03:10:17;20.60;99.90
1015;DHT22;8170;48.118;11.628;2022-07-04T03:11:19;20.60;99.90
1015;DHT22;8170;48.118;11.628;2022-07-04T03:12:22;20.60;99.90
1015;DHT22;8170;48.118;11.628;2022-07-04T03:13:25;20.60;99.90
1015;DHT22;8170;48.118;11.628;2022-07-04T03:14:28;20.60;99.90
1015;DHT22;8170;48.118;11.628;2022-07-04T03:15:31;20.60;99.90
1015;DHT22;8170;48.118;11.628;2022-07-04T03:16:34;20.60;99.90
1015;DHT22;8170;48.118;11.628;2022-07-04T03:17:36;20.60;99.90
1015;DHT22;8170;48.118;11.628;2022-07-04T03:18:40;20.70;99.90
1015;DHT22;8170;48.118;11.628;2022-07-04T03:19:42;20.70;99.90
1015;DHT22;8170;48.118;11.628;2022-07-04T03:20:46;20.70;99.90
1015;DHT22;8170;48.118;11.628;2022-07-04T03:21:48;20.60;99.90
1015;DHT22;8170;48.118;11.628;2022-07-04T03:22:51;20.50;99.90
1015;DHT22;8170;48.118;11.628;2022-07-04T03:23:56;20.40;99.90
1015;DHT22;8170;48.118;11.628;2022-07-04T03:25:02;20.40;99.90
1015;DHT22;8170;48.118;11.628;2022-07-04T03:26:08;20.50;99.90
1015;DHT22;8170;48.118;11.628;2022-07-04T03:27:11;20.50;99.90
1015;DHT22;8170;48.118;11.628;2022-07-04T03:28:13;20.50;99.90
1015;DHT22;8170;48.118;11.628;2022-07-04T03:29:17;20.50;99.90
1015;DHT22;8170;48.118;11.628;2022-07-04T03:30:19;20.50;99.90
1015;DHT22;8170;48.118;11.628;2022-07-04T03:31:24;20.40;99.90
1015;DHT22;8170;48.118;11.628;2022-07-04T03:32:26;20.40;99.90
1015;DHT22;8170;48.118;11.628;2022-07-04T03:33:30;20.30;99.90
1015;DHT22;8170;48.118;11.628;2022-07-04T03:34:32;20.20;99.90
1015;DHT22;8170;48.118;11.628;2022-07-04T03:35:35;20.10;99.90
1015;DHT22;8170;48.118;11.628;2022-07-04T03:36:37;20.10;99.90
1015;DHT22;8170;48.118;11.628;2022-07-04T03:37:40;20.10;99.90
1015;DHT22;8170;48.118;11.628;2022-07-04T03:38:43;20.10;99.90
1015;DHT22;8170;48.118;11.628;2022-07-04T03:39:46;20.10;99.90
1015;DHT22;8170;48.118;11.628;2022-07-04T03:40:52;20.20;99.90
1015;DHT22;8170;48.118;11.628;2022-07-04T03:41:56;20.20;99.90
1015;DHT22;8170;48.118;11.628;2022-07-04T03:42:58;20.20;99.90
1015;DHT22;8170;48.118;11.628;2022-07-04T03:44:11;20.20;99.90
1015;DHT22;8170;48.118;11.628;2022-07-04T03:45:13;20.20;99.90
1015;DHT22;8170;48.118;11.628;2022-07-04T03:46:16;20.20;99.90
1015;DHT22;8170;48.118;11.628;2022-07-04T03:47:19;20.20;99.90
1015;DHT22;8170;48.118;11.628;2022-07-04T03:48:22;20.20;99.90
1015;DHT22;8170;48.118;11.628;2022-07-04T03:49:24;20.30;99.90
1015;DHT22;8170;48.118;11.628;2022-07-04T03:50:27;20.30;99.90
1015;DHT22;8170;48.118;11.628;2022-07-04T03:51:29;20.30;99.90
1015;DHT22;8170;48.118;11.628;2022-07-04T03:52:33;20.30;99.90
1015;DHT22;8170;48.118;11.628;2022-07-04T03:53:35;20.30;99.90
1015;DHT22;8170;48.118;11.628;2022-07-04T03:54:38;20.30;99.90
1015;DHT22;8170;48.118;11.628;2022-07-04T03:55:40;20.30;99.90
1015;DHT22;8170;48.118;11.628;2022-07-04T03:56:44;20.30;99.90
1015;DHT22;8170;48.118;11.628;2022-07-04T03:57:47;20.30;99.90
1015;DHT22;8170;48.118;11.628;2022-07-04T03:58:50;20.20;99.90
1015;DHT22;8170;48.118;11.628;2022-07-04T03:59:53;20.20;99.90
1015;DHT22;8170;48.118;11.628;2022-07-04T04:00:56;20.30;99.90
1015;DHT22;8170;48.118;11.628;2022-07-04T04:02:00;20.20;99.90
1015;DHT22;8170;48.118;11.628;2022-07-04T04:03:03;20.20;99.90
1015;DHT22;8170;48.118;11.628;2022-07-04T04:04:26;20.20;99.90
1015;DHT22;8170;48.118;11.628;2022-07-04T04:05:47;20.30;99.90
1015;DHT22;8170;48.118;11.628;2022-07-04T04:06:49;20.20;99.90
1015;DHT22;8170;48.118;11.628;2022-07-04T04:07:54;20.10;99.90
1015;DHT22;8170;48.118;11.628;2022-07-04T04:08:57;20.10;99.90
1015;DHT22;8170;48.118;11.628;2022-07-04T04:10:00;20.10;99.90
1015;DHT22;8170;48.118;11.628;2022-07-04T04:11:03;20.10;99.90
1015;DHT22;8170;48.118;11.628;2022-07-04T04:12:07;20.20;99.90
1015;DHT22;8170;48.118;11.628;2022-07-04T04:13:11;20.20;99.90
1015;DHT22;8170;48.118;11.628;2022-07-04T04:14:15;20.30;99.90
1015;DHT22;8170;48.118;11.628;2022-07-04T04:15:17;20.30;99.90
1015;DHT22;8170;48.118;11.628;2022-07-04T04:16:20;20.30;99.90
1015;DHT22;8170;48.118;11.628;2022-07-04T04:17:23;20.30;99.90
1015;DHT22;8170;48.118;11.628;2022-07-04T04:18:26;20.20;99.90
1015;DHT22;8170;48.118;11.628;2022-07-04T04:19:28;20.20;99.90
1015;DHT22;8170;48.118;11.628;2022-07-04T04:20:32;20.20;99.90
1015;DHT22;8170;48.118;11.628;2022-07-04T04:21:35;20.20;99.90
1015;DHT22;8170;48.118;11.628;2022-07-04T04:22:37;20.20;99.90
1015;DHT22;8170;48.118;11.628;2022-07-04T04:23:41;20.30;99.90
1015;DHT22;8170;48.118;11.628;2022-07-04T04:24:43;20.40;99.90
1015;DHT22;8170;48.118;11.628;2022-07-04T04:25:47;20.40;99.90
1015;DHT22;8170;48.118;11.628;2022-07-04T04:26:56;20.40;99.90
1015;DHT22;8170;48.118;11.628;2022-07-04T04:27:59;20.40;99.90
1015;DHT22;8170;48.118;11.628;2022-07-04T04:29:03;20.40;99.90
1015;DHT22;8170;48.118;11.628;2022-07-04T04:30:07;20.40;99.90
1015;DHT22;8170;48.118;11.628;2022-07-04T04:31:09;20.50;99.90
1015;DHT22;8170;48.118;11.628;2022-07-04T04:32:13;20.50;99.90
1015;DHT22;8170;48.118;11.628;2022-07-04T04:33:15;20.50;99.90
1015;DHT22;8170;48.118;11.628;2022-07-04T04:34:18;20.50;99.90
1015;DHT22;8170;48.118;11.628;2022-07-04T04:35:20;20.50;99.90
1015;DHT22;8170;48.118;11.628;2022-07-04T04:36:23;20.50;99.90
1015;DHT22;8170;48.118;11.628;2022-07-04T04:37:25;20.40;99.90
1015;DHT22;8170;48.118;11.628;2022-07-04T04:38:29;20.40;99.90
1015;DHT22;8170;48.118;11.628;2022-07-04T04:39:31;20.40;99.90
1015;DHT22;8170;48.118;11.628;2022-07-04T04:40:34;20.40;99.90
1015;DHT22;8170;48.118;11.628;2022-07-04T04:41:36;20.40;99.90
1015;DHT22;8170;48.118;11.628;2022-07-04T04:42:39;20.40;99.90
1015;DHT22;8170;48.118;11.628;2022-07-04T04:43:42;20.40;99.90
1015;DHT22;8170;48.118;11.628;2022-07-04T04:44:46;20.50;99.90
1015;DHT22;8170;48.118;11.628;2022-07-04T04:45:49;20.50;99.90
1015;DHT22;8170;48.118;11.628;2022-07-04T04:46:51;20.50;99.90
1015;DHT22;8170;48.118;11.628;2022-07-04T04:47:55;20.50;99.90
1015;DHT22;8170;48.118;11.628;2022-07-04T04:48:57;20.40;99.90
1015;DHT22;8170;48.118;11.628;2022-07-04T04:50:00;20.40;99.90
1015;DHT22;8170;48.118;11.628;2022-07-04T04:51:02;20.50;99.90
1015;DHT22;8170;48.118;11.628;2022-07-04T04:52:10;20.60;99.90
1015;DHT22;8170;48.118;11.628;2022-07-04T04:53:13;20.70;99.90
1015;DHT22;8170;48.118;11.628;2022-07-04T04:54:16;20.80;99.90
1015;DHT22;8170;48.118;11.628;2022-07-04T04:55:18;20.90;99.90
1015;DHT22;8170;48.118;11.628;2022-07-04T04:56:21;21.00;99.90
1015;DHT22;8170;48.118;11.628;2022-07-04T04:57:24;21.10;99.90
1015;DHT22;8170;48.118;11.628;2022-07-04T04:58:27;21.10;99.90
1015;DHT22;8170;48.118;11.628;2022-07-04T04:59:30;21.20;99.90
1015;DHT22;8170;48.118;11.628;2022-07-04T05:00:35;21.20;99.90
1015;DHT22;8170;48.118;11.628;2022-07-04T05:01:37;21.30;99.90
1015;DHT22;8170;48.118;11.628;2022-07-04T05:02:43;21.40;99.90
1015;DHT22;8170;48.118;11.628;2022-07-04T05:03:46;21.50;99.90
1015;DHT22;8170;48.118;11.628;2022-07-04T05:04:49;21.60;99.90
1015;DHT22;8170;48.118;11.628;2022-07-04T05:05:51;21.60;99.90
1015;DHT22;8170;48.118;11.628;2022-07-04T05:06:55;21.60;99.90
1015;DHT22;8170;48.118;11.628;2022-07-04T05:07:57;21.50;99.90
1015;DHT22;8170;48.118;11.628;2022-07-04T05:09:00;21.60;99.90
1015;DHT22;8170;48.118;11.628;2022-07-04T05:10:03;21.60;99.90
1015;DHT22;8170;48.118;11.628;2022-07-04T05:11:06;21.60;99.90
1015;DHT22;8170;48.118;11.628;2022-07-04T05:12:09;21.60;99.90
1015;DHT22;8170;48.118;11.628;2022-07-04T05:13:12;21.50;99.90
1015;DHT22;8170;48.118;11.628;2022-07-04T05:14:15;21.40;99.90
1015;DHT22;8170;48.118;11.628;2022-07-04T05:15:18;21.50;99.90
1015;DHT22;8170;48.118;11.628;2022-07-04T05:16:21;21.50;99.90
1015;DHT22;8170;48.118;11.628;2022-07-04T05:17:25;21.50;99.90
1015;DHT22;8170;48.118;11.628;2022-07-04T05:18:28;21.60;99.90
1015;DHT22;8170;48.118;11.628;2022-07-04T05:19:30;21.60;99.90
1015;DHT22;8170;48.118;11.628;2022-07-04T05:20:33;21.70;99.90
1015;DHT22;8170;48.118;11.628;2022-07-04T05:21:36;21.70;99.90
1015;DHT22;8170;48.118;11.628;2022-07-04T05:22:39;21.60;99.90
1015;DHT22;8170;48.118;11.628;2022-07-04T05:23:41;21.60;99.90
1015;DHT22;8170;48.118;11.628;2022-07-04T05:24:44;21.60;99.90
1015;DHT22;8170;48.118;11.628;2022-07-04T05:25:47;21.60;99.90
1015;DHT22;8170;48.118;11.628;2022-07-04T05:26:51;21.60;99.90
1015;DHT22;8170;48.118;11.628;2022-07-04T05:27:59;21.60;99.90
1015;DHT22;8170;48.118;11.628;2022-07-04T05:29:02;21.60;99.90
1015;DHT22;8170;48.118;11.628;2022-07-04T05:30:07;21.70;99.90
1015;DHT22;8170;48.118;11.628;2022-07-04T05:31:09;21.70;99.90
1015;DHT22;8170;48.118;11.628;2022-07-04T05:32:14;21.70;99.90
1015;DHT22;8170;48.118;11.628;2022-07-04T05:33:16;21.60;99.90
1015;DHT22;8170;48.118;11.628;2022-07-04T05:34:19;21.60;99.90
1015;DHT22;8170;48.118;11.628;2022-07-04T05:35:21;21.50;99.90
1015;DHT22;8170;48.118;11.628;2022-07-04T05:36:25;21.60;99.90
1015;DHT22;8170;48.118;11.628;2022-07-04T05:37:30;21.50;99.90
1015;DHT22;8170;48.118;11.628;2022-07-04T05:38:34;21.50;99.90
1015;DHT22;8170;48.118;11.628;2022-07-04T05:39:36;21.50;99.90
1015;DHT22;8170;48.118;11.628;2022-07-04T05:40:39;21.50;99.90
1015;DHT22;8170;48.118;11.628;2022-07-04T05:41:41;21.50;99.90
1015;DHT22;8170;48.118;11.628;2022-07-04T05:42:44;21.40;99.90
1015;DHT22;8170;48.118;11.628;2022-07-04T05:43:47;21.40;99.90
1015;DHT22;8170;48.118;11.628;2022-07-04T05:44:56;21.40;99.90
1015;DHT22;8170;48.118;11.628;2022-07-04T05:45:58;21.40;99.90
1015;DHT22;8170;48.118;11.628;2022-07-04T05:47:01;21.40;99.90
1015;DHT22;8170;48.118;11.628;2022-07-04T05:48:05;21.30;99.90
1015;DHT22;8170;48.118;11.628;2022-07-04T05:49:09;21.30;99.90
1015;DHT22;8170;48.118;11.628;2022-07-04T05:50:12;21.20;99.90
1015;DHT22;8170;48.118;11.628;2022-07-04T05:51:14;21.20;99.90
1015;DHT22;8170;48.118;11.628;2022-07-04T05:52:18;21.30;99.90
1015;DHT22;8170;48.118;11.628;2022-07-04T05:53:20;21.30;99.90
1015;DHT22;8170;48.118;11.628;2022-07-04T05:54:24;21.40;99.90
1015;DHT22;8170;48.118;11.628;2022-07-04T05:55:27;21.40;99.90
1015;DHT22;8170;48.118;11.628;2022-07-04T05:56:29;21.40;99.90
1015;DHT22;8170;48.118;11.628;2022-07-04T05:57:33;21.40;99.90
1015;DHT22;8170;48.118;11.628;2022-07-04T05:58:35;21.50;99.90
1015;DHT22;8170;48.118;11.628;2022-07-04T05:59:38;21.50;99.90
1015;DHT22;8170;48.118;11.628;2022-07-04T06:00:40;21.50;99.90
1015;DHT22;8170;48.118;11.628;2022-07-04T06:01:43;21.60;99.90
1015;DHT22;8170;48.118;11.628;2022-07-04T06:02:47;21.60;99.90
1015;DHT22;8170;48.118;11.628;2022-07-04T06:03:50;21.50;99.90
1015;DHT22;8170;48.118;11.628;2022-07-04T06:04:54;21.50;99.90
1015;DHT22;8170;48.118;11.628;2022-07-04T06:05:56;21.60;99.90
1015;DHT22;8170;48.118;11.628;2022-07-04T06:06:59;21.60;99.90
1015;DHT22;8170;48.118;11.628;2022-07-04T06:08:02;21.60;99.90
1015;DHT22;8170;48.118;11.628;2022-07-04T06:09:05;21.60;99.90
1015;DHT22;8170;48.118;11.628;2022-07-04T06:10:09;21.70;99.90
1015;DHT22;8170;48.118;11.628;2022-07-04T06:11:11;21.70;99.90
1015;DHT22;8170;48.118;11.628;2022-07-04T06:12:16;21.80;99.90
1015;DHT22;8170;48.118;11.628;2022-07-04T06:13:18;21.80;99.90
1015;DHT22;8170;48.118;11.628;2022-07-04T06:14:24;21.80;99.90
1015;DHT22;8170;48.118;11.628;2022-07-04T06:15:26;21.80;99.90
1015;DHT22;8170;48.118;11.628;2022-07-04T06:16:30;21.90;99.90
1015;DHT22;8170;48.118;11.628;2022-07-04T06:17:33;21.80;99.90
1015;DHT22;8170;48.118;11.628;2022-07-04T06:18:36;21.70;99.90
1015;DHT22;8170;48.118;11.628;2022-07-04T06:19:40;21.70;99.90
1015;DHT22;8170;48.118;11.628;2022-07-04T06:20:44;21.80;99.90
1015;DHT22;8170;48.118;11.628;2022-07-04T06:21:48;21.70;99.90
1015;DHT22;8170;48.118;11.628;2022-07-04T06:22:53;21.70;99.90
1015;DHT22;8170;48.118;11.628;2022-07-04T06:23:55;21.70;99.90
1015;DHT22;8170;48.118;11.628;2022-07-04T06:24:59;21.70;99.90
1015;DHT22;8170;48.118;11.628;2022-07-04T06:26:02;21.60;99.90
1015;DHT22;8170;48.118;11.628;2022-07-04T06:28:28;21.60;99.90
1015;DHT22;8170;48.118;11.628;2022-07-04T06:30:02;21.60;99.90
1015;DHT22;8170;48.118;11.628;2022-07-04T06:31:12;21.60;99.90
1015;DHT22;8170;48.118;11.628;2022-07-04T06:32:51;21.70;99.90
1015;DHT22;8170;48.118;11.628;2022-07-04T06:33:56;21.70;99.90
1015;DHT22;8170;48.118;11.628;2022-07-04T06:35:28;21.80;99.90
1015;DHT22;8170;48.118;11.628;2022-07-04T06:37:17;21.80;99.90
1015;DHT22;8170;48.118;11.628;2022-07-04T06:38:29;21.80;99.90
1015;DHT22;8170;48.118;11.628;2022-07-04T06:39:41;21.70;99.90
1015;DHT22;8170;48.118;11.628;2022-07-04T06:40:48;21.60;99.90
1015;DHT22;8170;48.118;11.628;2022-07-04T06:41:52;21.70;99.90
1015;DHT22;8170;48.118;11.628;2022-07-04T06:43:00;21.70;99.90
1015;DHT22;8170;48.118;11.628;2022-07-04T06:44:10;21.80;99.90
1015;DHT22;8170;48.118;11.628;2022-07-04T06:45:15;21.80;99.90
1015;DHT22;8170;48.118;11.628;2022-07-04T06:46:37;21.80;99.90
1015;DHT22;8170;48.118;11.628;2022-07-04T06:47:56;21.80;99.90
1015;DHT22;8170;48.118;11.628;2022-07-04T06:49:06;21.70;99.90
1015;DHT22;8170;48.118;11.628;2022-07-04T06:50:13;21.70;99.90
1015;DHT22;8170;48.118;11.628;2022-07-04T06:51:45;21.60;99.90
1015;DHT22;8170;48.118;11.628;2022-07-04T06:52:49;21.60;99.90